Time;durP1;ratioP1;P1;durP2;ratioP2;P2;SDS_P1;SDS_P2;PMS_P1;PMS_P2;Temp;Humidity;BMP_temperature;BMP_pressure;BME280_temperature;BME280_humidity;BME280_pressure;Samples;Min_cycle;Max_cycle;Signal;HPM_P1;HPM_P2
2023/01/31 00:00:23;;;;;;;13.57;5.50;;;2.80;99.90;;;2.63;81.43;98975.13;5092967;28;20205;-70
2023/01/31 00:02:51;;;;;;;7.37;4.70;;;2.80;99.90;;;2.64;80.75;98982.72;5073423;28;20271;-72
2023/01/31 00:05:20;;;;;;;8.40;4.83;;;2.90;99.90;;;2.66;81.38;98980.22;5092905;28;20213;-69
2023/01/31 00:07:49;;;;;;;8.80;4.47;;;2.90;99.90;;;2.68;80.77;98981.03;5090397;28;20268;-69
2023/01/31 00:10:17;;;;;;;7.77;4.97;;;2.90;99.90;;;2.67;81.02;98982.75;5107096;28;20209;-70
2023/01/31 00:12:46;;;;;;;10.90;4.53;;;2.90;99.90;;;2.70;80.95;98978.53;5097069;28;20235;-69
2023/01/31 00:15:15;;;;;;;8.20;4.47;;;2.90;99.90;;;2.70;81.08;98989.53;5097055;28;20181;-70
2023/01/31 00:17:45;;;;;;;8.37;4.13;;;2.90;99.90;;;2.72;81.21;98990.38;5108253;28;20256;-69
2023/01/31 00:20:13;;;;;;;9.30;4.20;;;2.90;99.90;;;2.73;80.38;98996.34;5092133;28;20209;-69
2023/01/31 00:22:42;;;;;;;10.07;4.60;;;2.90;99.90;;;2.72;80.55;98992.09;5096900;28;20193;-70
2023/01/31 00:25:10;;;;;;;10.10;4.70;;;2.90;99.90;;;2.72;80.50;98990.38;5101561;28;20177;-69
2023/01/31 00:27:39;;;;;;;7.27;4.53;;;2.90;99.90;;;2.73;80.62;98997.19;5095440;28;20213;-71
2023/01/31 00:30:09;;;;;;;8.43;4.50;;;2.90;99.90;;;2.73;80.17;99002.28;5093078;28;20236;-70
2023/01/31 00:32:37;;;;;;;10.90;5.17;;;2.90;99.90;;;2.74;80.79;99003.97;5087102;28;20189;-69
2023/01/31 00:35:08;;;;;;;12.67;5.03;;;3.00;99.90;;;2.74;80.24;99006.50;5095126;28;20189;-69
2023/01/31 00:37:37;;;;;;;9.60;4.97;;;2.90;99.90;;;2.74;81.26;99003.13;5094079;28;20217;-69
2023/01/31 00:40:07;;;;;;;10.67;4.97;;;2.90;99.90;;;2.74;80.81;99011.59;5098829;28;20188;-70
2023/01/31 00:42:35;;;;;;;10.37;5.43;;;2.90;99.90;;;2.75;80.65;99020.91;5101074;28;20185;-70
2023/01/31 00:45:05;;;;;;;11.63;5.00;;;3.00;99.90;;;2.73;80.70;99019.25;5086979;28;20189;-70
2023/01/31 00:47:33;;;;;;;7.77;4.00;;;3.00;99.90;;;2.74;81.15;99024.31;5095327;28;20190;-69
2023/01/31 00:50:03;;;;;;;9.20;4.97;;;2.90;99.90;;;2.76;81.19;99037.03;5099647;28;20233;-69
2023/01/31 00:52:33;;;;;;;10.67;4.80;;;2.90;99.90;;;2.74;80.50;99019.22;5105389;28;20251;-69
2023/01/31 00:55:02;;;;;;;7.70;4.30;;;3.00;99.90;;;2.73;80.74;99027.72;5101006;28;20224;-69
2023/01/31 00:57:30;;;;;;;12.93;4.50;;;2.90;99.90;;;2.74;80.22;99036.19;5088478;28;20201;-69
2023/01/31 00:59:59;;;;;;;9.23;4.20;;;2.90;99.90;;;2.72;80.70;99037.88;5097497;28;20193;-70
2023/01/31 01:02:27;;;;;;;8.03;5.03;;;2.90;99.90;;;2.71;81.41;99019.22;5102361;28;20184;-70
2023/01/31 01:04:55;;;;;;;6.50;4.17;;;2.90;99.90;;;2.71;80.30;99039.56;5098829;28;20184;-67
2023/01/31 01:07:24;;;;;;;6.53;4.37;;;2.90;99.90;;;2.70;80.81;99053.13;5098573;28;20231;-70
2023/01/31 01:09:55;;;;;;;11.40;4.60;;;2.90;99.90;;;2.69;80.88;99043.81;5085687;28;20223;-68
2023/01/31 01:12:23;;;;;;;8.13;4.73;;;2.90;99.90;;;2.68;81.07;99049.72;5105476;28;20197;-67
2023/01/31 01:14:51;;;;;;;5.53;4.07;;;2.90;99.90;;;2.66;81.82;99051.41;5096667;28;20218;-69
2023/01/31 01:17:20;;;;;;;11.90;4.70;;;2.90;99.90;;;2.65;80.50;99047.16;5098153;28;20178;-69
2023/01/31 01:19:48;;;;;;;6.97;4.20;;;2.90;99.90;;;2.65;81.01;99053.13;5107334;28;20239;-70
2023/01/31 01:22:17;;;;;;;7.20;4.30;;;2.90;99.90;;;2.64;81.51;99045.47;5095855;28;20198;-70
2023/01/31 01:24:46;;;;;;;7.83;4.10;;;2.90;99.90;;;2.66;81.85;99051.41;5097261;28;20231;-70
2023/01/31 01:27:15;;;;;;;8.93;4.43;;;2.90;99.90;;;2.65;81.96;99048.03;5105449;28;20205;-70
2023/01/31 01:29:44;;;;;;;7.83;3.87;;;2.90;99.90;;;2.66;81.02;99057.34;5095273;28;20271;-71
2023/01/31 01:32:13;;;;;;;13.50;4.47;;;2.90;99.90;;;2.63;81.66;99042.06;5084113;28;20197;-69
2023/01/31 01:34:42;;;;;;;6.70;4.30;;;2.90;99.90;;;2.64;81.77;99053.09;5096546;28;20193;-69
2023/01/31 01:37:18;;;;;;;8.83;4.27;;;2.90;99.90;;;2.62;80.92;99047.16;5092208;28;20237;-70
2023/01/31 01:39:47;;;;;;;8.93;4.80;;;2.90;99.90;;;2.61;81.58;99048.00;5100722;28;20223;-69
2023/01/31 01:42:19;;;;;;;6.77;4.10;;;2.80;99.90;;;2.61;81.45;99053.06;5094101;28;20209;-70
2023/01/31 01:44:51;;;;;;;7.07;3.47;;;2.80;99.90;;;2.59;81.84;99065.78;5096485;28;20197;-70
2023/01/31 01:47:40;;;;;;;5.70;4.10;;;2.80;99.90;;;2.57;81.36;99061.53;5095490;28;20219;-70
2023/01/31 01:50:16;;;;;;;7.13;4.07;;;2.80;99.90;;;2.58;81.61;99066.66;5085974;28;20185;-69
2023/01/31 01:52:50;;;;;;;9.70;4.57;;;2.80;99.90;;;2.60;81.30;99074.28;5095270;28;20200;-70
2023/01/31 01:55:24;;;;;;;9.03;4.13;;;2.80;99.90;;;2.60;81.41;99066.63;5097208;28;20215;-69
2023/01/31 01:58:02;;;;;;;8.10;5.20;;;2.80;99.90;;;2.60;81.97;99082.75;5097028;28;20181;-69
2023/01/31 02:00:33;;;;;;;12.67;4.33;;;2.80;99.90;;;2.61;81.00;99086.13;5081616;28;20674;-67
2023/01/31 02:03:05;;;;;;;6.33;4.00;;;2.80;99.90;;;2.61;81.75;99086.13;5082915;28;20230;-68
2023/01/31 02:05:40;;;;;;;8.30;4.37;;;2.80;99.90;;;2.62;81.51;99095.47;5078699;28;20267;-67
2023/01/31 02:08:09;;;;;;;7.67;4.37;;;2.80;99.90;;;2.62;81.67;99101.41;5066827;28;20231;-68
2023/01/31 02:10:45;;;;;;;8.13;4.17;;;2.80;99.90;;;2.61;81.86;99101.38;5065029;28;20239;-68
2023/01/31 02:13:16;;;;;;;9.03;4.13;;;2.90;99.90;;;2.62;81.75;99101.41;5068173;28;20657;-67
2023/01/31 02:15:44;;;;;;;9.07;3.70;;;2.80;99.90;;;2.63;81.83;99103.09;5077627;28;20229;-66
2023/01/31 02:18:14;;;;;;;10.43;5.23;;;2.90;99.90;;;2.66;81.62;99118.38;5083514;28;20205;-66
2023/01/31 02:21:42;;;;;;;8.57;4.10;;;2.90;99.90;;;2.69;81.62;99124.31;5065902;28;20699;-67
2023/01/31 02:25:08;;;;;;;9.00;4.10;;;2.90;99.90;;;2.71;81.91;99141.28;5046095;28;20262;-67
2023/01/31 02:28:34;;;;;;;10.97;4.13;;;2.90;99.90;;;2.72;81.84;99137.91;5060429;28;20201;-66
2023/01/31 02:31:59;;;;;;;8.10;3.73;;;2.90;99.90;;;2.72;81.55;99137.06;5067889;28;20308;-68
2023/01/31 02:34:41;;;;;;;7.03;3.40;;;3.00;99.90;;;2.74;81.68;99141.31;5048991;28;20201;-66
2023/01/31 02:37:25;;;;;;;7.73;3.93;;;2.90;99.90;;;2.74;81.43;99148.94;5076946;28;20204;-68
2023/01/31 02:40:04;;;;;;;10.30;4.27;;;3.00;99.90;;;2.76;81.24;99152.38;5071151;28;21872;-66
2023/01/31 02:42:41;;;;;;;10.23;4.13;;;3.00;99.90;;;2.76;80.74;99149.81;5066880;28;20356;-68
2023/01/31 02:45:18;;;;;;;7.93;3.33;;;3.00;99.90;;;2.75;80.59;99153.19;5060977;28;20205;-67
2023/01/31 02:48:13;;;;;;;9.50;3.90;;;3.00;99.90;;;2.77;80.97;99164.22;5073258;28;20197;-68
2023/01/31 02:50:49;;;;;;;7.77;3.70;;;3.00;99.90;;;2.77;81.06;99164.22;5079637;28;20200;-68
2023/01/31 02:53:25;;;;;;;7.83;3.60;;;3.00;99.90;;;2.80;81.04;99178.63;5073108;28;20256;-66
2023/01/31 02:58:56;;;;;;;8.83;3.60;;;3.10;99.90;;;2.84;80.02;99183.78;5059328;28;20595;-68
2023/01/31 03:01:31;;;;;;;11.37;3.97;;;3.10;99.90;;;2.84;80.33;99183.78;5069067;28;20560;-67
2023/01/31 03:04:03;;;;;;;5.87;3.20;;;3.10;99.90;;;2.86;80.27;99194.78;5070706;28;20204;-69
2023/01/31 03:07:02;;;;;;;8.73;3.53;;;3.10;99.90;;;2.88;80.32;99198.22;5071438;28;20205;-68
2023/01/31 03:09:41;;;;;;;7.97;3.50;;;3.10;99.90;;;2.91;80.13;99210.09;5073660;28;20258;-67
2023/01/31 03:12:36;;;;;;;5.93;2.90;;;3.10;99.90;;;2.92;80.45;99210.97;5066473;28;20328;-68
2023/01/31 03:17:30;;;;;;;8.10;3.43;;;3.10;99.90;;;2.93;79.50;99210.09;5053335;28;20228;-68
2023/01/31 03:18:19;;;;;;;8.50;3.50;;;3.10;99.90;;;2.96;80.56;99205.03;5064552;28;20285;-67
2023/01/31 03:20:56;;;;;;;6.23;2.77;;;3.20;99.90;;;2.99;79.62;99225.41;5067354;28;20285;-67
2023/01/31 03:23:30;;;;;;;9.20;2.80;;;3.10;99.90;;;3.00;79.59;99227.13;5078581;28;20236;-68
2023/01/31 03:26:00;;;;;;;8.50;3.33;;;3.20;99.90;;;3.00;79.97;99225.41;5059685;28;20244;-67
2023/01/31 03:28:34;;;;;;;7.83;3.30;;;3.20;99.90;;;2.99;79.28;99240.69;5069226;28;20347;-68
2023/01/31 03:31:10;;;;;;;8.87;3.27;;;3.20;99.90;;;2.98;79.23;99237.25;5081421;28;20718;-67
2023/01/31 03:33:43;;;;;;;8.73;2.73;;;3.20;99.90;;;2.99;79.06;99236.44;5065760;28;20201;-67
2023/01/31 03:36:24;;;;;;;12.20;3.40;;;3.20;99.90;;;3.00;79.89;99245.78;5070369;28;20197;-68
2023/01/31 03:39:05;;;;;;;8.57;2.60;;;3.20;99.90;;;3.00;79.35;99248.31;5064024;28;20197;-67
2023/01/31 03:41:47;;;;;;;6.30;3.03;;;3.20;99.90;;;3.02;79.20;99246.66;5072809;28;20197;-68
2023/01/31 03:44:25;;;;;;;10.53;2.97;;;3.20;99.90;;;3.01;79.30;99244.06;5073908;28;20266;-67
2023/01/31 03:47:00;;;;;;;9.50;3.27;;;3.20;99.90;;;3.00;78.48;99250.84;5078666;28;20197;-65
2023/01/31 03:49:31;;;;;;;8.30;2.50;;;3.20;99.90;;;2.98;78.86;99255.06;5067790;28;20196;-68
2023/01/31 03:52:05;;;;;;;12.80;3.17;;;3.20;99.90;;;3.01;79.31;99251.72;5070688;28;20673;-68
2023/01/31 03:54:42;;;;;;;11.37;3.30;;;3.20;99.90;;;2.99;78.92;99243.22;5072390;28;20205;-70
2023/01/31 03:57:17;;;;;;;10.77;3.17;;;3.20;99.90;;;3.00;79.00;99253.41;5063587;28;20252;-68
2023/01/31 03:59:52;;;;;;;7.40;3.10;;;3.20;99.90;;;3.03;78.14;99252.59;5076066;28;20216;-67
2023/01/31 04:02:25;;;;;;;12.63;2.53;;;3.20;99.90;;;3.02;78.08;99263.56;5077837;28;20201;-67
2023/01/31 04:05:00;;;;;;;9.80;2.73;;;3.20;99.90;;;3.01;78.49;99266.97;5068848;28;20200;-68
2023/01/31 04:07:28;;;;;;;9.90;2.87;;;3.20;99.90;;;3.02;78.55;99261.03;5062212;28;20625;-66
2023/01/31 04:09:58;;;;;;;9.77;2.70;;;3.20;99.90;;;3.01;78.33;99257.66;5072268;28;20223;-67
2023/01/31 04:12:27;;;;;;;8.43;2.53;;;3.20;99.90;;;3.03;78.24;99265.31;5070069;28;20228;-69
2023/01/31 04:14:55;;;;;;;9.40;2.60;;;3.20;99.90;;;3.04;77.90;99261.91;5072041;28;20248;-67
2023/01/31 04:17:23;;;;;;;11.37;2.60;;;3.20;99.90;;;3.04;77.69;99264.44;5078661;28;20711;-68
2023/01/31 04:19:52;;;;;;;9.40;2.43;;;3.20;99.90;;;3.04;77.81;99274.63;5067248;28;20261;-68
2023/01/31 04:22:20;;;;;;;7.67;2.47;;;3.20;99.90;;;3.03;77.72;99271.25;5071778;28;20658;-66
2023/01/31 04:24:49;;;;;;;8.87;2.77;;;3.20;99.90;;;3.04;77.08;99282.28;5069298;28;20237;-68
2023/01/31 04:27:18;;;;;;;8.93;2.63;;;3.20;99.90;;;3.02;77.05;99283.94;5080114;28;20232;-68
2023/01/31 04:29:47;;;;;;;10.70;2.63;;;3.20;99.90;;;3.02;76.84;99294.13;5081473;28;20275;-67
2023/01/31 04:32:15;;;;;;;12.63;3.07;;;3.20;99.90;;;2.99;77.27;99294.97;5070282;28;20224;-69
2023/01/31 04:34:44;;;;;;;9.00;2.67;;;3.20;99.90;;;2.98;77.16;99293.25;5068566;28;20210;-68
2023/01/31 04:37:12;;;;;;;10.57;2.50;;;3.30;99.90;;;3.01;77.21;99312.78;5076173;28;20221;-67
2023/01/31 04:39:41;;;;;;;13.47;2.70;;;3.20;99.90;;;3.02;77.48;99305.19;5061074;28;20237;-66
2023/01/31 04:42:09;;;;;;;13.00;3.07;;;3.20;99.90;;;3.03;76.92;99303.47;5069781;28;20213;-68
2023/01/31 04:44:39;;;;;;;8.40;2.60;;;3.20;99.90;;;3.01;76.22;99310.22;5080808;28;20209;-70
2023/01/31 04:47:07;;;;;;;9.00;2.50;;;3.20;99.90;;;3.02;77.38;99322.09;5089325;28;20224;-70
2023/01/31 04:49:36;;;;;;;10.87;2.53;;;3.20;99.90;;;3.03;77.08;99321.28;5093501;28;20212;-71
2023/01/31 04:52:05;;;;;;;13.67;3.20;;;3.20;99.90;;;2.99;76.68;99315.31;5096110;28;20205;-71
2023/01/31 04:54:35;;;;;;;12.23;3.50;;;3.20;99.90;;;3.01;77.17;99328.03;5077352;28;20315;-70
2023/01/31 04:57:04;;;;;;;9.97;2.90;;;3.20;99.90;;;3.01;75.98;99328.91;5076508;28;20225;-71
2023/01/31 04:59:32;;;;;;;12.47;2.47;;;3.20;99.90;;;3.02;76.30;99329.75;5075988;28;20256;-71
2023/01/31 05:02:02;;;;;;;11.30;2.67;;;3.20;99.90;;;3.03;76.69;99323.84;5098309;28;20201;-70
2023/01/31 05:04:31;;;;;;;11.43;3.10;;;3.20;99.90;;;3.03;76.18;99326.38;5077523;28;20229;-73
2023/01/31 05:07:00;;;;;;;12.43;2.47;;;3.20;99.90;;;3.02;75.79;99328.06;5098616;28;20231;-71
2023/01/31 05:09:28;;;;;;;9.00;2.10;;;3.20;99.90;;;3.04;75.76;99345.88;5097944;28;20200;-73
2023/01/31 05:11:56;;;;;;;11.20;2.77;;;3.20;99.90;;;3.03;75.83;99347.59;5092970;28;20227;-70
2023/01/31 05:14:25;;;;;;;9.07;2.23;;;3.20;99.90;;;3.03;75.85;99346.75;5090124;28;20216;-71
2023/01/31 05:16:54;;;;;;;13.50;2.70;;;3.20;99.90;;;3.03;75.53;99362.84;5090794;28;20209;-71
2023/01/31 05:19:23;;;;;;;14.63;3.13;;;3.20;99.90;;;3.03;75.85;99362.00;5098615;28;20235;-70
2023/01/31 05:21:57;;;;;;;12.07;3.03;;;3.20;99.90;;;3.07;74.98;99363.72;5092228;28;20505;-70
2023/01/31 05:24:28;;;;;;;10.37;2.93;;;3.30;99.90;;;3.08;75.32;99371.38;5100831;28;20248;-70
2023/01/31 05:27:00;;;;;;;10.60;2.23;;;3.30;99.90;;;3.08;74.82;99386.63;5094099;28;20209;-69
2023/01/31 05:29:30;;;;;;;8.77;2.50;;;3.30;99.90;;;3.09;75.53;99388.38;5102259;28;20249;-71
2023/01/31 05:32:00;;;;;;;11.47;2.40;;;3.30;99.90;;;3.11;75.17;99384.13;5080252;28;20205;-70
2023/01/31 05:34:32;;;;;;;5.40;2.40;;;3.30;99.90;;;3.17;74.63;99400.28;5093920;28;20194;-72
2023/01/31 05:37:02;;;;;;;8.03;2.53;;;3.30;99.90;;;3.19;74.51;99408.78;5094325;28;20687;-70
2023/01/31 05:39:31;;;;;;;8.90;2.37;;;3.30;99.90;;;3.17;74.80;99408.78;5094255;28;20235;-70
2023/01/31 05:41:59;;;;;;;12.33;2.43;;;3.30;99.90;;;3.16;74.93;99417.25;5096903;28;20250;-69
2023/01/31 05:44:28;;;;;;;10.57;2.80;;;3.30;99.90;;;3.15;74.96;99406.22;5090706;28;20253;-70
2023/01/31 05:46:59;;;;;;;11.57;2.70;;;3.30;99.90;;;3.18;74.46;99414.72;5092972;28;20205;-72
2023/01/31 05:49:32;;;;;;;11.03;2.73;;;3.30;99.90;;;3.15;74.62;99413.00;5094166;28;20246;-69
2023/01/31 05:52:02;;;;;;;13.63;2.90;;;3.40;99.90;;;3.18;73.67;99422.34;5093262;28;20204;-69
2023/01/31 05:54:30;;;;;;;8.47;2.23;;;3.40;99.90;;;3.19;74.43;99424.06;5078725;28;20236;-71
2023/01/31 05:57:00;;;;;;;6.07;2.03;;;3.40;99.90;;;3.16;73.47;99427.41;5085175;28;20217;-72
2023/01/31 05:59:30;;;;;;;8.63;2.63;;;3.30;99.90;;;3.15;74.11;99430.81;5066172;28;20592;-70
2023/01/31 06:01:58;;;;;;;8.30;1.90;;;3.30;99.90;;;3.13;74.17;99440.16;5086033;28;20220;-69
2023/01/31 06:04:27;;;;;;;8.40;2.07;;;3.30;99.90;;;3.10;74.07;99445.22;5066818;28;20217;-72
2023/01/31 06:06:55;;;;;;;6.27;2.50;;;3.30;99.90;;;3.04;73.72;99434.97;5080655;28;20204;-72
2023/01/31 06:09:25;;;;;;;9.07;2.67;;;3.20;99.90;;;3.04;73.52;99446.00;5052334;28;20224;-75
2023/01/31 06:11:56;;;;;;;9.27;2.80;;;3.20;99.90;;;3.03;73.64;99451.06;5057490;28;20220;-69
2023/01/31 06:14:24;;;;;;;5.60;2.23;;;3.20;99.90;;;3.03;73.98;99456.16;5072969;28;20205;-70
2023/01/31 06:16:53;;;;;;;9.17;2.47;;;3.20;99.90;;;3.00;74.14;99458.69;5042464;28;20295;-71
2023/01/31 06:19:24;;;;;;;5.47;2.07;;;3.20;99.90;;;3.00;74.25;99461.22;5051038;28;20224;-71
2023/01/31 06:21:52;;;;;;;8.87;2.80;;;3.20;99.90;;;2.98;74.11;99467.97;5072406;28;20664;-72
2023/01/31 06:24:21;;;;;;;8.47;2.03;;;3.20;99.90;;;2.98;73.96;99475.59;5069080;28;20247;-71
2023/01/31 06:26:51;;;;;;;8.73;2.03;;;3.20;99.90;;;2.98;73.73;99476.47;5071803;28;20248;-72
2023/01/31 06:29:19;;;;;;;7.73;2.57;;;3.20;99.90;;;2.96;74.02;99483.25;5072972;28;20246;-71
2023/01/31 06:31:48;;;;;;;9.77;2.53;;;3.20;99.90;;;2.94;74.04;99474.72;5069187;28;20213;-71
2023/01/31 06:34:17;;;;;;;10.97;2.33;;;3.20;99.90;;;2.96;73.70;99490.88;5076269;28;20201;-71
2023/01/31 06:36:45;;;;;;;8.87;2.03;;;3.20;99.90;;;2.98;73.93;99501.06;5080382;28;20195;-71
2023/01/31 06:39:15;;;;;;;7.30;2.20;;;3.20;99.90;;;2.99;73.38;99500.25;5072763;28;20201;-71
2023/01/31 06:41:44;;;;;;;3.53;1.70;;;3.20;99.90;;;3.00;74.12;99507.03;5066451;28;20262;-77
2023/01/31 06:44:14;;;;;;;8.70;2.43;;;3.20;99.90;;;2.99;74.06;99508.72;5078147;28;20258;-75
2023/01/31 06:46:42;;;;;;;6.63;1.90;;;3.20;99.90;;;3.01;73.19;99491.75;5071182;28;20654;-76
2023/01/31 06:49:12;;;;;;;6.53;1.97;;;3.20;99.90;;;3.02;73.24;99523.16;5083846;28;20213;-79
2023/01/31 06:51:41;;;;;;;11.37;2.37;;;3.20;99.90;;;3.03;73.55;99517.25;5075588;28;20197;-72
2023/01/31 06:54:09;;;;;;;10.70;2.30;;;3.20;99.90;;;3.03;73.46;99517.25;5070354;28;20193;-76
2023/01/31 06:56:38;;;;;;;10.27;2.50;;;3.20;99.90;;;3.01;73.71;99516.38;5072556;28;20245;-74
2023/01/31 06:59:06;;;;;;;7.53;2.67;;;3.30;99.90;;;3.01;73.31;99521.44;5064870;28;20217;-72
2023/01/31 07:01:38;;;;;;;10.40;2.60;;;3.20;99.90;;;3.03;73.46;99533.38;5070285;28;20355;-76
2023/01/31 07:04:06;;;;;;;9.80;2.93;;;3.30;99.90;;;3.04;73.41;99526.59;5072003;28;20201;-72
2023/01/31 07:06:35;;;;;;;9.30;2.40;;;3.30;99.90;;;3.09;72.97;99536.00;5071909;28;20287;-75
2023/01/31 07:09:04;;;;;;;9.67;3.00;;;3.30;99.90;;;3.10;72.74;99547.00;5074913;28;20209;-78
2023/01/31 07:11:32;;;;;;;11.60;2.23;;;3.30;99.90;;;3.10;72.50;99552.09;5083142;28;20230;-77
2023/01/31 07:14:00;;;;;;;8.57;2.43;;;3.30;99.90;;;3.12;73.16;99558.91;5085674;28;20209;-70
2023/01/31 07:16:29;;;;;;;9.27;2.47;;;3.40;99.90;;;3.13;73.27;99559.78;5095334;28;20185;-74
2023/01/31 07:18:59;;;;;;;9.60;2.80;;;3.30;99.90;;;3.18;73.26;99564.91;5092571;28;20285;-73
2023/01/31 07:21:29;;;;;;;11.67;3.07;;;3.40;99.90;;;3.21;73.38;99570.03;5094157;28;20213;-76
2023/01/31 07:23:57;;;;;;;8.63;2.63;;;3.40;99.90;;;3.24;73.24;99576.03;5092972;28;20186;-71
2023/01/31 07:26:25;;;;;;;9.97;2.50;;;3.50;99.90;;;3.26;72.24;99579.41;5095044;28;20251;-73
2023/01/31 07:28:54;;;;;;;10.77;2.53;;;3.40;99.90;;;3.26;72.13;99584.50;5092859;28;20243;-70
2023/01/31 07:31:23;;;;;;;7.07;2.87;;;3.50;99.90;;;3.27;72.73;99581.13;5087817;28;20227;-75
2023/01/31 07:33:51;;;;;;;9.20;2.93;;;3.50;99.90;;;3.31;73.01;99582.84;5082708;28;20228;-76
2023/01/31 07:36:25;;;;;;;9.80;2.53;;;3.50;99.90;;;3.32;72.35;99589.69;5082380;28;20202;-73
2023/01/31 07:38:58;;;;;;;5.27;2.37;;;3.50;99.90;;;3.32;72.20;99584.59;5074279;28;20656;-73
2023/01/31 07:41:27;;;;;;;9.27;2.57;;;3.50;99.90;;;3.32;71.88;99582.03;5087264;28;20217;-75
2023/01/31 07:43:56;;;;;;;10.60;2.77;;;3.50;99.90;;;3.36;72.35;99600.75;5078611;28;20197;-76
2023/01/31 07:46:24;;;;;;;10.17;2.00;;;3.50;99.90;;;3.35;71.23;99610.09;5064548;28;20659;-74
2023/01/31 07:48:55;;;;;;;9.10;2.00;;;3.50;99.90;;;3.33;71.70;99599.00;5076275;28;20237;-76
2023/01/31 07:51:25;;;;;;;7.17;2.10;;;3.50;99.90;;;3.29;71.61;99602.38;5060730;28;20656;-76
2023/01/31 07:53:54;;;;;;;9.33;2.27;;;3.50;99.90;;;3.30;72.41;99609.16;5064771;28;20198;-76
2023/01/31 07:56:22;;;;;;;7.73;1.87;;;3.50;99.90;;;3.31;72.26;99618.50;5057795;28;20267;-80
2023/01/31 07:58:52;;;;;;;10.10;2.43;;;3.60;99.90;;;3.38;71.78;99620.28;5079354;28;20185;-78
2023/01/31 08:04:14;;;;;;;10.57;2.83;;;3.60;99.90;;;3.47;71.74;99623.78;5080551;28;20715;-78
2023/01/31 08:06:54;;;;;;;8.97;2.33;;;3.70;99.90;;;3.53;71.18;99639.09;5083210;28;20216;-76
2023/01/31 08:09:24;;;;;;;8.67;2.10;;;3.70;99.90;;;3.55;71.04;99632.34;5090248;28;20198;-72
2023/01/31 08:11:53;;;;;;;6.47;2.33;;;3.70;99.90;;;3.57;70.52;99640.84;5059244;28;20288;-73
2023/01/31 08:14:24;;;;;;;7.30;2.40;;;3.80;99.90;;;3.60;71.00;99635.78;5076398;28;20193;-70
2023/01/31 08:16:53;;;;;;;8.77;2.17;;;3.80;99.90;;;3.63;70.31;99656.19;5087524;28;20177;-71
2023/01/31 08:19:21;;;;;;;5.47;1.90;;;3.90;99.90;;;3.62;70.04;99654.50;5075222;28;20205;-74
2023/01/31 08:21:51;;;;;;;9.57;2.43;;;3.80;99.90;;;3.63;70.19;99651.94;5071584;28;20221;-73
2023/01/31 08:24:20;;;;;;;8.03;2.23;;;3.90;99.90;;;3.68;69.38;99664.72;5073260;28;20208;-76
2023/01/31 08:26:48;;;;;;;8.30;2.20;;;3.90;99.90;;;3.71;69.71;99664.75;5074372;28;20217;-79
2023/01/31 08:29:17;;;;;;;7.83;2.10;;;3.90;99.90;;;3.72;69.71;99665.63;5072107;28;20241;-81
2023/01/31 08:31:45;;;;;;;10.93;2.40;;;3.90;99.90;;;3.71;69.48;99667.31;5072940;28;20205;-80
2023/01/31 08:34:14;;;;;;;7.87;2.20;;;3.90;99.90;;;3.69;68.88;99670.72;5074837;28;20542;-80
2023/01/31 08:36:43;;;;;;;10.60;3.40;;;3.90;99.90;;;3.68;68.87;99679.16;5069606;28;20204;-79
2023/01/31 08:39:13;;;;;;;10.33;2.57;;;3.90;99.90;;;3.66;68.78;99681.72;5077296;28;20212;-80
2023/01/31 08:41:42;;;;;;;9.13;2.63;;;3.90;99.90;;;3.71;68.90;99689.38;5066984;28;20198;-80
2023/01/31 08:44:12;;;;;;;10.77;2.80;;;3.90;99.90;;;3.73;68.34;99682.63;5067567;28;20473;-77
2023/01/31 08:46:41;;;;;;;5.97;2.40;;;3.90;99.90;;;3.78;69.28;99686.06;5088120;28;20193;-73
2023/01/31 08:49:10;;;;;;;10.43;2.63;;;4.00;99.90;;;3.90;68.56;99688.72;5093426;28;20213;-74
2023/01/31 08:51:38;;;;;;;7.53;2.40;;;4.10;99.90;;;4.02;67.71;99681.22;5092501;28;20247;-75
2023/01/31 08:54:09;;;;;;;8.20;2.13;;;4.20;99.90;;;4.14;67.10;99677.91;5078543;28;20218;-73
2023/01/31 08:56:39;;;;;;;6.67;2.70;;;4.40;99.90;;;4.42;67.17;99684.09;5081425;28;20205;-78
2023/01/31 08:59:08;;;;;;;5.53;1.97;;;4.70;99.90;;;4.72;67.44;99686.00;5072076;28;20208;-74
2023/01/31 09:01:40;;;;;;;6.37;2.30;;;5.00;99.90;;;4.87;65.08;99692.88;5071328;28;20267;-73
2023/01/31 09:04:08;;;;;;;10.00;1.90;;;5.10;99.90;;;5.00;64.00;99683.59;5075611;28;20657;-74
2023/01/31 09:06:37;;;;;;;9.40;1.93;;;5.30;99.90;;;5.06;63.40;99683.63;5080860;28;20213;-80
2023/01/31 09:09:05;;;;;;;5.97;2.53;;;5.40;99.90;;;5.08;62.96;99684.47;5082876;28;20204;-72
2023/01/31 09:11:34;;;;;;;5.93;1.93;;;5.30;99.90;;;5.11;61.81;99686.19;5088053;28;20201;-71
2023/01/31 09:14:04;;;;;;;6.30;2.40;;;5.40;99.90;;;5.20;62.93;99696.47;5084204;28;20236;-73
2023/01/31 09:16:33;;;;;;;8.67;1.90;;;5.40;99.90;;;5.13;61.75;99695.59;5080318;28;20208;-73
2023/01/31 09:19:02;;;;;;;11.40;3.07;;;5.40;99.90;;;4.98;61.78;99696.34;5080312;28;20228;-73
2023/01/31 09:21:30;;;;;;;6.77;2.07;;;5.20;99.90;;;4.87;61.71;99697.16;5081405;28;20213;-73
2023/01/31 09:24:02;;;;;;;5.27;1.70;;;5.10;99.90;;;4.77;61.87;99706.44;5082859;28;20235;-73
2023/01/31 09:26:31;;;;;;;10.23;2.27;;;4.90;99.90;;;4.69;62.42;99706.38;5084417;28;20276;-75
2023/01/31 09:29:01;;;;;;;7.43;2.03;;;4.90;99.90;;;4.62;62.46;99716.53;5085761;28;20305;-74
2023/01/31 09:31:31;;;;;;;6.27;1.83;;;4.80;99.90;;;4.50;62.21;99712.22;5088893;28;20262;-74
2023/01/31 09:33:59;;;;;;;9.70;2.20;;;4.70;99.90;;;4.47;63.14;99717.28;5082356;28;20202;-74
2023/01/31 09:36:28;;;;;;;6.23;1.87;;;4.70;99.90;;;4.51;62.84;99721.56;5069854;28;20206;-80
2023/01/31 09:38:58;;;;;;;6.17;2.10;;;4.80;99.90;;;4.51;62.95;99721.56;5092273;28;20672;-81
2023/01/31 09:41:34;;;;;;;7.67;1.97;;;4.70;99.90;;;4.47;62.84;99719.84;5078721;28;20204;-75
2023/01/31 09:44:06;;;;;;;5.93;1.90;;;4.70;99.90;;;4.43;62.79;99723.22;5077953;28;20262;-75
2023/01/31 09:46:41;;;;;;;6.13;1.90;;;4.70;99.90;;;4.42;63.12;99736.78;5075139;28;20216;-75
2023/01/31 09:49:18;;;;;;;7.77;1.83;;;4.60;99.90;;;4.38;63.01;99740.16;5058739;28;20209;-76
2023/01/31 09:51:52;;;;;;;6.60;2.20;;;4.60;99.90;;;4.33;62.47;99727.38;5073069;28;20201;-74
2023/01/31 09:54:28;;;;;;;11.77;2.43;;;4.60;99.90;;;4.31;63.21;99727.38;5075238;28;20201;-75
2023/01/31 09:57:23;;;;;;;13.67;2.73;;;4.50;99.90;;;4.28;62.90;99732.44;5075958;28;20235;-75
2023/01/31 10:00:06;;;;;;;11.20;2.10;;;4.50;99.90;;;4.27;62.80;99730.75;5075770;28;20335;-77
2023/01/31 10:03:19;;;;;;;6.03;1.97;;;4.50;99.90;;;4.40;63.33;99735.94;5087301;28;20213;-74
2023/01/31 10:05:52;;;;;;;9.03;2.00;;;4.70;99.90;;;4.50;62.94;99735.19;5086830;28;20221;-77
2023/01/31 10:08:36;;;;;;;7.20;2.60;;;4.70;99.90;;;4.63;62.27;99741.22;5088894;28;20199;-73
2023/01/31 10:11:12;;;;;;;9.37;2.73;;;4.80;99.90;;;4.63;61.53;99721.66;5095145;28;20189;-72
2023/01/31 10:13:49;;;;;;;8.97;4.10;;;4.80;99.90;;;4.60;61.88;99721.63;5097333;28;20219;-71
2023/01/31 10:16:26;;;;;;;10.20;4.10;;;4.90;99.90;;;4.60;61.87;99727.59;5090838;28;20212;-71
2023/01/31 10:19:02;;;;;;;9.87;2.70;;;4.90;99.90;;;4.72;62.00;99726.84;5095451;28;20181;-72
2023/01/31 10:21:38;;;;;;;8.97;2.60;;;5.00;99.90;;;4.73;61.24;99733.63;5074159;28;20205;-75
2023/01/31 10:24:17;;;;;;;9.30;2.50;;;5.00;99.90;;;4.67;61.35;99723.38;5073137;28;20223;-74
2023/01/31 10:26:48;;;;;;;7.43;1.73;;;5.00;99.90;;;4.61;60.97;99731.00;5045992;28;20568;-74
2023/01/31 10:29:27;;;;;;;11.93;2.33;;;4.90;99.90;;;4.55;61.21;99746.25;5074854;28;20662;-77
2023/01/31 10:32:03;;;;;;;9.43;2.00;;;4.80;99.90;;;4.49;61.47;99739.44;5071105;28;20224;-80
2023/01/31 10:34:41;;;;;;;9.77;2.23;;;4.80;99.90;;;4.45;61.11;99722.34;5075553;28;20262;-80
2023/01/31 10:37:18;;;;;;;7.23;2.33;;;4.70;99.90;;;4.45;61.45;99731.72;5073962;28;20562;-78
2023/01/31 10:39:52;;;;;;;7.70;2.17;;;4.70;99.90;;;4.39;61.77;99737.63;5069677;28;20197;-77
2023/01/31 10:42:28;;;;;;;6.73;2.20;;;4.70;99.90;;;4.39;61.88;99731.69;5065707;28;20259;-76
2023/01/31 10:45:06;;;;;;;8.37;2.13;;;4.70;99.90;;;4.41;61.70;99745.28;5076030;28;20213;-78
2023/01/31 10:47:37;;;;;;;5.20;2.20;;;4.70;99.90;;;4.35;60.29;99726.56;5054466;28;20201;-80
2023/01/31 10:50:17;;;;;;;4.73;1.90;;;4.60;99.90;;;4.35;60.81;99736.75;5086412;28;20198;-78
2023/01/31 10:52:59;;;;;;;7.37;2.63;;;4.60;99.90;;;4.41;60.98;99740.19;5085257;28;20209;-78
2023/01/31 10:55:46;;;;;;;7.93;2.27;;;4.70;99.90;;;4.45;60.44;99722.34;5063916;28;20217;-78
2023/01/31 10:58:18;;;;;;;5.10;1.80;;;4.70;99.90;;;4.49;60.02;99725.78;5090475;28;20649;-79